createdAt,value
2019-05-05T00:00:49.102Z,1002.05
2019-05-05T00:01:47.653Z,1002.02
2019-05-05T00:02:46.198Z,1002.03
2019-05-05T00:03:44.794Z,1002.04
2019-05-05T00:04:45.406Z,1002.08
2019-05-05T00:05:44.230Z,1002.08
2019-05-05T00:06:40.654Z,1002.1
2019-05-05T00:07:39.237Z,1002.09
2019-05-05T00:08:37.771Z,1002.13
2019-05-05T00:09:36.326Z,1002.14
2019-05-05T00:10:34.893Z,1002.2
2019-05-05T00:11:35.114Z,1002.16
2019-05-05T00:12:34.172Z,1002.2
2019-05-05T00:13:30.555Z,1002.19
2019-05-05T00:14:29.315Z,1002.21
2019-05-05T00:15:27.870Z,1002.23
2019-05-05T00:16:26.403Z,1002.27
2019-05-05T00:17:25.081Z,1002.3
2019-05-05T00:18:25.219Z,1002.33
2019-05-05T00:19:30.568Z,1002.31
2019-05-05T00:20:20.960Z,1002.36
2019-05-05T00:21:19.500Z,1002.33
2019-05-05T00:22:18.075Z,1002.28
2019-05-05T00:23:16.638Z,1002.32
2019-05-05T00:24:15.272Z,1002.28
2019-05-05T00:25:14.282Z,1002.32
2019-05-05T00:26:12.262Z,1002.36
2019-05-05T00:27:11.069Z,1002.34
2019-05-05T00:28:09.789Z,1002.37
2019-05-05T00:29:08.336Z,1002.34
2019-05-05T00:30:07.004Z,1002.42
2019-05-05T00:31:05.554Z,1002.4
2019-05-05T00:32:04.915Z,1002.43
2019-05-05T00:33:02.737Z,1002.43
2019-05-05T00:34:01.295Z,1002.44
2019-05-05T00:34:59.838Z,1002.45
2019-05-05T00:35:58.390Z,1002.48
2019-05-05T00:36:57.009Z,1002.4
2019-05-05T00:37:55.703Z,1002.44
2019-05-05T00:38:55.141Z,1002.44
2019-05-05T00:39:54.296Z,1002.42
2019-05-05T00:40:51.530Z,1002.43
2019-05-05T00:41:50.123Z,1002.47
2019-05-05T00:42:48.677Z,1002.48
2019-05-05T00:43:47.353Z,1002.5
2019-05-05T00:44:45.936Z,1002.5
2019-05-05T00:45:45.073Z,1002.5
2019-05-05T00:46:44.669Z,1002.56
2019-05-05T00:47:41.683Z,1002.58
2019-05-05T00:48:40.222Z,1002.6
2019-05-05T00:49:46.243Z,1002.6
2019-05-05T00:50:37.610Z,1002.6
2019-05-05T00:51:36.170Z,1002.59
2019-05-05T00:52:35.202Z,1002.61
2019-05-05T00:53:34.207Z,1002.65
2019-05-05T00:54:32.034Z,1002.67
2019-05-05T00:55:31.434Z,1002.7
2019-05-05T00:56:30.017Z,1002.67
2019-05-05T00:57:28.567Z,1002.67
2019-05-05T00:58:27.170Z,1002.72
2019-05-05T00:59:25.748Z,1002.75
2019-05-05T01:00:24.467Z,1002.71
2019-05-05T01:01:24.437Z,1002.73
2019-05-05T01:02:21.535Z,1002.83
2019-05-05T01:03:20.086Z,1002.77
2019-05-05T01:04:18.693Z,1002.76
2019-05-05T01:06:59.039Z,1002.75
2019-05-05T01:09:57.225Z,1002.71
2019-05-05T01:10:55.861Z,1002.69
2019-05-05T01:11:55.000Z,1002.71
2019-05-05T01:12:54.407Z,1002.7
2019-05-05T01:13:51.585Z,1002.67
2019-05-05T01:14:50.128Z,1002.75
2019-05-05T01:15:48.724Z,1002.74
2019-05-05T01:16:47.286Z,1002.77
2019-05-05T01:17:45.832Z,1002.79
2019-05-05T01:18:45.006Z,1002.74
2019-05-05T01:19:42.914Z,1002.81
2019-05-05T01:20:41.460Z,1002.82
2019-05-05T01:21:40.001Z,1002.86
2019-05-05T01:22:38.567Z,1002.85
2019-05-05T01:23:37.243Z,1002.84
2019-05-05T01:24:35.812Z,1002.82
2019-05-05T01:25:34.747Z,1002.84
2019-05-05T01:27:31.925Z,1002.84
2019-05-05T01:30:31.304Z,1002.83
2019-05-05T01:31:29.864Z,1002.87
2019-05-05T01:32:28.428Z,1002.85
2019-05-05T01:33:26.974Z,1002.86
2019-05-05T01:34:25.510Z,1002.8
2019-05-05T01:35:24.884Z,1002.85
2019-05-05T01:36:24.167Z,1002.86
2019-05-05T01:37:21.109Z,1002.82
2019-05-05T01:38:19.669Z,1002.78
2019-05-05T01:39:18.211Z,1002.79
2019-05-05T01:40:16.825Z,1002.83
2019-05-05T01:41:15.531Z,1002.88
2019-05-05T01:42:14.477Z,1002.87
2019-05-05T01:43:14.585Z,1002.88
2019-05-05T01:44:11.640Z,1002.87
2019-05-05T01:45:10.183Z,1002.86
2019-05-05T01:46:08.726Z,1002.83
2019-05-05T01:47:07.288Z,1002.86
2019-05-05T01:48:05.818Z,1002.82
2019-05-05T01:49:05.311Z,1002.87
2019-05-05T01:50:14.918Z,1002.84
2019-05-05T01:51:01.725Z,1002.88
2019-05-05T01:52:00.287Z,1002.89
2019-05-05T01:52:58.962Z,1002.88
2019-05-05T01:53:57.605Z,1002.85
2019-05-05T01:54:56.164Z,1002.87
2019-05-05T01:55:54.751Z,1002.88
2019-05-05T01:56:55.309Z,1002.84
2019-05-05T01:57:51.910Z,1002.88
2019-05-05T01:58:50.478Z,1002.86
2019-05-05T01:59:49.032Z,1002.87
2019-05-05T02:00:47.603Z,1002.86
2019-05-05T02:01:46.152Z,1002.86
2019-05-05T02:02:44.975Z,1002.89
2019-05-05T02:03:44.238Z,1002.92
2019-05-05T02:04:41.996Z,1002.9
2019-05-05T02:05:40.568Z,1002.94
2019-05-05T02:06:39.190Z,1002.91
2019-05-05T02:07:37.744Z,1002.92
2019-05-05T02:08:36.332Z,1002.91
2019-05-05T02:09:35.441Z,1002.91
2019-05-05T02:10:34.812Z,1002.9
2019-05-05T02:11:32.042Z,1002.86
2019-05-05T02:12:30.604Z,1002.89
2019-05-05T02:13:29.155Z,1002.91
2019-05-05T02:14:27.706Z,1002.95
2019-05-05T02:15:26.223Z,1003
2019-05-05T02:16:25.415Z,1002.95
2019-05-05T02:17:24.656Z,1003
2019-05-05T02:18:21.884Z,1002.94
2019-05-05T02:19:20.423Z,1002.96
2019-05-05T02:20:28.714Z,1003.06
2019-05-05T02:21:17.626Z,1003.05
2019-05-05T02:22:16.135Z,1003.03
2019-05-05T02:23:15.151Z,1003.03
2019-05-05T02:24:14.442Z,1003.04
2019-05-05T02:25:11.963Z,1003.09
2019-05-05T02:26:10.518Z,1003.1
2019-05-05T02:27:09.280Z,1003.14
2019-05-05T02:28:07.851Z,1003.19
2019-05-05T02:29:06.409Z,1003.18
2019-05-05T02:30:06.114Z,1003.15
2019-05-05T02:31:05.512Z,1003.19
2019-05-05T02:32:02.045Z,1003.17
2019-05-05T02:33:00.588Z,1003.23
2019-05-05T02:33:59.139Z,1003.27
2019-05-05T02:34:57.687Z,1003.3
2019-05-05T02:35:56.239Z,1003.32
2019-05-05T02:36:56.456Z,1003.33
2019-05-05T02:37:55.746Z,1003.31
2019-05-05T02:38:52.105Z,1003.39
2019-05-05T02:39:58.745Z,1003.39
2019-05-05T02:40:49.412Z,1003.41
2019-05-05T02:41:47.979Z,1003.35
2019-05-05T02:42:46.600Z,1003.4
2019-05-05T02:43:45.171Z,1003.35
2019-05-05T02:44:45.486Z,1003.41
2019-05-05T02:45:44.102Z,1003.41
2019-05-05T02:46:40.826Z,1003.4
2019-05-05T02:47:39.503Z,1003.44
2019-05-05T02:48:38.057Z,1003.43
2019-05-05T02:49:36.726Z,1003.48
2019-05-05T02:50:50.656Z,1003.48
2019-05-05T02:51:35.426Z,1003.47
2019-05-05T02:52:34.632Z,1003.46
2019-05-05T02:53:31.248Z,1003.51
2019-05-05T02:54:29.991Z,1003.48
2019-05-05T02:55:28.541Z,1003.54
2019-05-05T02:56:27.123Z,1003.55
2019-05-05T02:57:25.679Z,1003.48
2019-05-05T02:58:24.490Z,1003.53
2019-05-05T02:59:23.717Z,1003.57
2019-05-05T03:00:21.487Z,1003.58
2019-05-05T03:01:20.033Z,1003.56
2019-05-05T03:02:18.636Z,1003.55
2019-05-05T03:03:17.190Z,1003.62
2019-05-05T03:04:15.803Z,1003.59
2019-05-05T03:05:14.359Z,1003.61
2019-05-05T03:06:14.452Z,1003.59
2019-05-05T03:07:13.219Z,1003.6
2019-05-05T03:08:10.015Z,1003.61
2019-05-05T03:09:08.578Z,1003.64
2019-05-05T03:10:07.186Z,1003.65
2019-05-05T03:11:05.726Z,1003.66
2019-05-05T03:12:04.815Z,1003.64
2019-05-05T03:13:04.690Z,1003.59
2019-05-05T03:14:01.562Z,1003.63
2019-05-05T03:15:00.084Z,1003.62
2019-05-05T03:15:58.686Z,1003.54
2019-05-05T03:16:57.472Z,1003.62
2019-05-05T03:17:56.044Z,1003.54
2019-05-05T03:18:54.697Z,1003.59
2019-05-05T03:19:53.583Z,1003.57
2019-05-05T03:21:02.246Z,1003.58
2019-05-05T03:21:50.384Z,1003.59
2019-05-05T03:22:48.944Z,1003.64
2019-05-05T03:23:47.539Z,1003.65
2019-05-05T03:24:46.100Z,1003.66
2019-05-05T03:25:44.630Z,1003.7
2019-05-05T03:26:44.331Z,1003.69
2019-05-05T03:27:41.812Z,1003.71
2019-05-05T03:28:40.356Z,1003.67
2019-05-05T03:29:38.962Z,1003.74
2019-05-05T03:30:37.593Z,1003.73
2019-05-05T03:31:36.149Z,1003.73
2019-05-05T03:32:35.939Z,1003.75
2019-05-05T03:33:35.125Z,1003.72
2019-05-05T03:34:31.950Z,1003.75
2019-05-05T03:35:30.516Z,1003.76
2019-05-05T03:36:29.075Z,1003.82
2019-05-05T03:37:27.639Z,1003.8
2019-05-05T03:38:26.188Z,1003.79
2019-05-05T03:39:24.752Z,1003.81
2019-05-05T03:40:23.852Z,1003.8
2019-05-05T03:41:23.380Z,1003.83
2019-05-05T03:42:20.465Z,1003.84
2019-05-05T03:43:19.201Z,1003.88
2019-05-05T03:44:17.858Z,1003.87
2019-05-05T03:45:16.504Z,1003.88
2019-05-05T03:46:15.076Z,1003.87
2019-05-05T03:47:14.028Z,1003.82
2019-05-05T03:48:13.578Z,1003.89
2019-05-05T03:49:11.255Z,1003.91
2019-05-05T03:50:09.895Z,1003.89
2019-05-05T03:51:18.089Z,1003.99
2019-05-05T03:52:07.314Z,1003.96
2019-05-05T03:53:05.849Z,1003.97
2019-05-05T03:54:04.556Z,1003.96
2019-05-05T03:55:03.776Z,1003.91
2019-05-05T03:56:03.673Z,1003.92
2019-05-05T03:57:00.183Z,1003.89
2019-05-05T03:57:58.869Z,1003.83
2019-05-05T03:58:58.336Z,1003.9
2019-05-05T03:59:56.108Z,1003.95
2019-05-05T04:00:54.947Z,1003.91
2019-05-05T04:01:54.516Z,1003.96
2019-05-05T04:02:53.830Z,1004
2019-05-05T04:03:50.549Z,1003.98
2019-05-05T04:04:49.482Z,1003.98
2019-05-05T04:05:48.029Z,1004.03
2019-05-05T04:06:46.568Z,1003.98
2019-05-05T04:07:45.441Z,1004.01
2019-05-05T04:08:44.533Z,1004.02
2019-05-05T04:09:43.735Z,1003.94
2019-05-05T04:10:41.144Z,1004
2019-05-05T04:11:39.696Z,1003.94
2019-05-05T04:12:38.249Z,1003.96
2019-05-05T04:13:36.774Z,1004
2019-05-05T04:14:35.367Z,1003.95
2019-05-05T04:15:33.916Z,1004
2019-05-05T04:16:34.207Z,1004
2019-05-05T04:17:31.173Z,1003.95
2019-05-05T04:18:29.898Z,1004.06
2019-05-05T04:19:28.598Z,1004.07
2019-05-05T04:20:27.181Z,1004.07
2019-05-05T04:21:33.093Z,1004.15
2019-05-05T04:22:24.310Z,1004.12
2019-05-05T04:23:24.516Z,1004.15
2019-05-05T04:24:21.437Z,1004.1
2019-05-05T04:25:19.988Z,1004.11
2019-05-05T04:26:18.513Z,1004.11
2019-05-05T04:27:17.352Z,1004.12
2019-05-05T04:28:15.891Z,1004.1
2019-05-05T04:29:14.434Z,1004.17
2019-05-05T04:30:14.217Z,1004.17
2019-05-05T04:31:13.531Z,1004.15
2019-05-05T04:32:10.470Z,1004.21
2019-05-05T04:33:09.032Z,1004.22
2019-05-05T04:34:07.588Z,1004.24
2019-05-05T04:35:06.124Z,1004.27
2019-05-05T04:36:04.702Z,1004.31
2019-05-05T04:37:04.101Z,1004.27
2019-05-05T04:38:02.066Z,1004.26
2019-05-05T04:39:00.605Z,1004.27
2019-05-05T04:39:59.434Z,1004.23
2019-05-05T04:40:57.995Z,1004.24
2019-05-05T04:41:56.539Z,1004.25
2019-05-05T04:42:55.134Z,1004.27
2019-05-05T04:43:54.659Z,1004.27
2019-05-05T04:44:53.753Z,1004.2
2019-05-05T04:45:50.782Z,1004.31
2019-05-05T04:46:49.577Z,1004.22
2019-05-05T04:47:48.137Z,1004.26
2019-05-05T04:48:46.681Z,1004.2
2019-05-05T04:49:45.341Z,1004.24
2019-05-05T04:50:44.126Z,1004.24
2019-05-05T04:51:47.520Z,1004.29
2019-05-05T04:52:41.059Z,1004.27
2019-05-05T04:53:39.624Z,1004.27
2019-05-05T04:54:38.208Z,1004.34
2019-05-05T04:55:36.812Z,1004.31
2019-05-05T04:56:35.397Z,1004.35
2019-05-05T04:57:35.415Z,1004.31
2019-05-05T04:58:33.560Z,1004.36
2019-05-05T04:59:31.069Z,1004.33
2019-05-05T05:00:29.724Z,1004.37
2019-05-05T05:01:28.293Z,1004.37
2019-05-05T05:02:26.949Z,1004.45
2019-05-05T05:03:25.670Z,1004.38
2019-05-05T05:04:24.373Z,1004.42
2019-05-05T05:05:24.399Z,1004.44
2019-05-05T05:06:23.220Z,1004.44
2019-05-05T05:07:19.979Z,1004.42
2019-05-05T05:08:18.577Z,1004.41
2019-05-05T05:09:17.103Z,1004.48
2019-05-05T05:10:15.645Z,1004.43
2019-05-05T05:11:14.333Z,1004.45
2019-05-05T05:12:14.585Z,1004.42
2019-05-05T05:13:13.331Z,1004.45
2019-05-05T05:14:10.153Z,1004.39
2019-05-05T05:15:08.708Z,1004.4
2019-05-05T05:16:07.282Z,1004.45
2019-05-05T05:17:05.946Z,1004.47
2019-05-05T05:18:04.593Z,1004.44
2019-05-05T05:19:04.288Z,1004.45
2019-05-05T05:20:03.560Z,1004.43
2019-05-05T05:21:00.362Z,1004.42
2019-05-05T05:22:01.944Z,1004.46
2019-05-05T05:22:57.581Z,1004.43
2019-05-05T05:23:56.094Z,1004.42
2019-05-05T05:24:54.800Z,1004.44
2019-05-05T05:25:54.376Z,1004.44
2019-05-05T05:26:52.043Z,1004.39
2019-05-05T05:27:50.607Z,1004.41
2019-05-05T05:28:49.198Z,1004.47
2019-05-05T05:29:47.764Z,1004.48
2019-05-05T05:30:46.322Z,1004.45
2019-05-05T05:31:44.893Z,1004.47
2019-05-05T05:32:44.510Z,1004.42
2019-05-05T05:33:43.626Z,1004.51
2019-05-05T05:34:40.570Z,1004.48
2019-05-05T05:35:39.133Z,1004.45
2019-05-05T05:36:37.666Z,1004.53
2019-05-05T05:37:36.239Z,1004.53
2019-05-05T05:38:34.949Z,1004.55
2019-05-05T05:39:33.704Z,1004.57
2019-05-05T05:40:33.995Z,1004.61
2019-05-05T05:41:30.730Z,1004.63
2019-05-05T05:42:29.375Z,1004.66
2019-05-05T05:43:27.937Z,1004.62
2019-05-05T05:44:28.126Z,1004.62
2019-05-05T05:45:25.184Z,1004.57
2019-05-05T05:46:24.109Z,1004.66
2019-05-05T05:47:24.291Z,1004.62
2019-05-05T05:48:20.856Z,1004.67
2019-05-05T05:49:19.550Z,1004.59
2019-05-05T05:50:18.096Z,1004.66
2019-05-05T05:51:19.067Z,1004.66
2019-05-05T05:52:18.893Z,1004.67
2019-05-05T05:53:14.117Z,1004.66
2019-05-05T05:54:14.121Z,1004.67
2019-05-05T05:55:11.256Z,1004.67
2019-05-05T05:56:09.841Z,1004.69
2019-05-05T05:57:08.403Z,1004.72
2019-05-05T06:00:47.076Z,1004.76
2019-05-05T06:01:45.700Z,1004.74
2019-05-05T06:02:44.244Z,1004.7
2019-05-05T06:03:44.316Z,1004.74
2019-05-05T06:04:41.424Z,1004.74
2019-05-05T06:05:39.988Z,1004.77
2019-05-05T06:06:38.526Z,1004.8
2019-05-05T06:07:37.410Z,1004.79
2019-05-05T06:08:35.975Z,1004.83
2019-05-05T06:09:34.663Z,1004.82
2019-05-05T06:10:33.850Z,1004.9
2019-05-05T06:11:31.890Z,1004.81
2019-05-05T06:12:30.462Z,1004.84
2019-05-05T06:13:29.348Z,1004.89
2019-05-05T06:14:27.904Z,1004.87
2019-05-05T06:15:26.475Z,1004.86
2019-05-05T06:16:25.049Z,1004.91
2019-05-05T06:17:23.803Z,1004.92
2019-05-05T06:18:24.130Z,1004.91
2019-05-05T06:19:20.683Z,1005
2019-05-05T06:20:19.227Z,1004.94
2019-05-05T06:22:59.286Z,1004.99
2019-05-05T06:23:57.856Z,1004.99
2019-05-05T06:24:56.394Z,1005
2019-05-05T06:25:55.353Z,1004.94
2019-05-05T06:26:54.692Z,1004.93
2019-05-05T06:27:53.970Z,1004.95
2019-05-05T06:28:50.710Z,1005.14
2019-05-05T06:29:49.994Z,1005.09
2019-05-05T06:30:48.526Z,1005.03
2019-05-05T06:31:47.293Z,1005.05
2019-05-05T06:32:45.924Z,1005.01
2019-05-05T06:33:44.435Z,1004.98
2019-05-05T06:34:44.237Z,1005
2019-05-05T06:35:41.680Z,1005.06
2019-05-05T06:36:40.240Z,1005.16
2019-05-05T06:37:38.833Z,1005.02
2019-05-05T06:38:37.477Z,1005.05
2019-05-05T06:39:36.055Z,1005.02
2019-05-05T06:40:34.582Z,1005.02
2019-05-05T06:41:34.171Z,1005.03
2019-05-05T06:42:34.152Z,1005.11
2019-05-05T06:43:30.568Z,1005.09
2019-05-05T06:44:29.265Z,1005
2019-05-05T06:45:27.821Z,1004.99
2019-05-05T06:46:26.376Z,1005.02
2019-05-05T06:47:24.984Z,1004.95
2019-05-05T06:48:23.753Z,1004.99
2019-05-05T06:49:23.769Z,1005.04
2019-05-05T06:50:20.728Z,1005.12
2019-05-05T06:51:19.581Z,1005.08
2019-05-05T06:52:18.118Z,1005.04
2019-05-05T06:53:16.655Z,1005.09
2019-05-05T06:54:15.325Z,1005.02
2019-05-05T06:55:14.140Z,1005.01
2019-05-05T06:56:14.294Z,1005.01
2019-05-05T06:57:11.093Z,1005
2019-05-05T06:58:09.648Z,1005.09
2019-05-05T06:59:08.194Z,1005.13
2019-05-05T07:00:06.732Z,1005.14
2019-05-05T07:01:05.292Z,1005.14
2019-05-05T07:02:04.302Z,1005.09
2019-05-05T07:03:05.820Z,1005.07
2019-05-05T07:04:00.968Z,1005.15
2019-05-05T07:04:59.652Z,1005.08
2019-05-05T07:05:58.221Z,1005.22
2019-05-05T07:06:57.224Z,1005.14
2019-05-05T07:07:55.619Z,1005.08
2019-05-05T07:08:54.605Z,1005.17
2019-05-05T07:09:54.264Z,1005.14
2019-05-05T07:10:51.372Z,1005.11
2019-05-05T07:11:49.990Z,1005.23
2019-05-05T07:12:48.598Z,1005.16
2019-05-05T07:13:47.382Z,1005.13
2019-05-05T07:14:45.939Z,1005.2
2019-05-05T07:15:44.461Z,1005.09
2019-05-05T07:16:43.860Z,1005.34
2019-05-05T07:17:44.037Z,1005.22
2019-05-05T07:18:40.540Z,1005.29
2019-05-05T07:19:39.075Z,1005.32
2019-05-05T07:20:37.622Z,1005.31
2019-05-05T07:21:36.168Z,1005.3
2019-05-05T07:22:34.856Z,1005.33
2019-05-05T07:23:34.172Z,1005.33
2019-05-05T07:24:34.143Z,1005.35
2019-05-05T07:25:40.547Z,1005.43
2019-05-05T07:26:29.541Z,1005.43
2019-05-05T07:27:28.076Z,1005.48
2019-05-05T07:28:26.614Z,1005.35
2019-05-05T07:29:25.166Z,1005.41
2019-05-05T07:30:24.273Z,1005.43
2019-05-05T07:31:23.796Z,1005.45
2019-05-05T07:32:20.838Z,1005.38
2019-05-05T07:33:19.371Z,1005.4
2019-05-05T07:34:17.932Z,1005.4
2019-05-05T07:35:16.485Z,1005.43
2019-05-05T07:36:15.128Z,1005.5
2019-05-05T07:37:14.316Z,1005.5
2019-05-05T07:38:13.810Z,1005.5
2019-05-05T07:39:10.899Z,1005.48
2019-05-05T07:40:09.687Z,1005.4
2019-05-05T07:41:08.228Z,1005.4
2019-05-05T07:42:06.803Z,1005.5
2019-05-05T07:43:05.424Z,1005.42
2019-05-05T07:44:04.746Z,1005.43
2019-05-05T07:45:04.212Z,1005.37
2019-05-05T07:46:01.413Z,1005.38
2019-05-05T07:46:59.978Z,1005.33
2019-05-05T07:47:58.519Z,1005.42
2019-05-05T07:48:57.161Z,1005.38
2019-05-05T07:49:55.777Z,1005.39
2019-05-05T07:51:01.318Z,1005.38
2019-05-05T07:51:54.622Z,1005.38
2019-05-05T07:52:51.597Z,1005.46
2019-05-05T07:53:50.147Z,1005.43
2019-05-05T07:54:48.786Z,1005.43
2019-05-05T07:55:47.505Z,1005.46
2019-05-05T07:56:46.061Z,1005.49
2019-05-05T07:57:44.581Z,1005.51
2019-05-05T07:58:43.833Z,1005.46
2019-05-05T07:59:41.928Z,1005.47
2019-05-05T08:00:40.489Z,1005.59
2019-05-05T08:01:39.189Z,1005.47
2019-05-05T08:02:37.759Z,1005.48
2019-05-05T08:03:36.304Z,1005.43
2019-05-05T08:04:34.863Z,1005.43
2019-05-05T08:05:33.632Z,1005.41
2019-05-05T08:06:33.834Z,1005.45
2019-05-05T08:07:30.529Z,1005.56
2019-05-05T08:08:29.232Z,1005.51
2019-05-05T08:09:27.773Z,1005.57
2019-05-05T08:10:26.358Z,1005.52
2019-05-05T08:11:24.937Z,1005.56
2019-05-05T08:12:24.888Z,1005.54
2019-05-05T08:13:24.100Z,1005.61
2019-05-05T08:14:20.900Z,1005.57
2019-05-05T08:15:19.480Z,1005.61
2019-05-05T08:16:18.057Z,1005.58
2019-05-05T08:17:16.608Z,1005.63
2019-05-05T08:18:15.168Z,1005.61
2019-05-05T08:19:13.886Z,1005.61
2019-05-05T08:20:14.269Z,1005.59
2019-05-05T08:21:11.046Z,1005.64
2019-05-05T08:22:09.740Z,1005.75
2019-05-05T08:23:08.402Z,1005.65
2019-05-05T08:24:07.041Z,1005.6
2019-05-05T08:25:05.604Z,1005.66
2019-05-05T08:26:04.548Z,1005.65
2019-05-05T08:27:04.486Z,1005.62
2019-05-05T08:28:01.290Z,1005.62
2019-05-05T08:28:59.828Z,1005.68
2019-05-05T08:29:58.363Z,1005.63
2019-05-05T08:30:57.214Z,1005.69
2019-05-05T08:38:18.938Z,1005.75
2019-05-05T08:39:17.770Z,1005.83
2019-05-05T08:40:16.540Z,1005.76
2019-05-05T08:41:15.378Z,1005.73
2019-05-05T08:42:14.459Z,1005.72
2019-05-05T08:43:13.793Z,1005.72
2019-05-05T08:44:11.538Z,1005.7
2019-05-05T08:45:10.069Z,1005.76
2019-05-05T08:46:08.618Z,1005.72
2019-05-05T08:47:07.470Z,1005.76
2019-05-05T08:48:06.063Z,1005.72
2019-05-05T08:49:04.610Z,1005.72
2019-05-05T08:50:04.135Z,1005.78
2019-05-05T08:51:02.158Z,1005.95
2019-05-05T08:52:00.711Z,1005.82
2019-05-05T08:52:59.504Z,1005.81
2019-05-05T08:53:58.078Z,1005.78
2019-05-05T08:54:56.675Z,1005.77
2019-05-05T08:55:55.517Z,1005.74
2019-05-05T08:56:54.917Z,1005.78
2019-05-05T08:57:53.951Z,1005.79
2019-05-05T08:58:51.570Z,1005.84
2019-05-05T08:59:50.172Z,1005.86
2019-05-05T09:00:48.735Z,1005.83
2019-05-05T09:01:47.517Z,1005.8
2019-05-05T09:02:46.056Z,1005.81
2019-05-05T09:03:44.613Z,1005.81
2019-05-05T09:04:44.648Z,1005.85
2019-05-05T09:05:43.682Z,1005.85
2019-05-05T09:06:40.613Z,1005.83
2019-05-05T09:07:39.243Z,1005.78
2019-05-05T09:08:37.777Z,1005.77
2019-05-05T09:09:36.344Z,1005.78
2019-05-05T09:10:35.306Z,1005.83
2019-05-05T09:11:34.330Z,1005.74
2019-05-05T09:12:33.880Z,1005.82
2019-05-05T09:13:33.792Z,1005.75
2019-05-05T09:14:30.235Z,1005.72
2019-05-05T09:15:28.931Z,1005.74
2019-05-05T09:16:27.628Z,1005.79
2019-05-05T09:17:27.983Z,1005.71
2019-05-05T09:18:24.937Z,1005.68
2019-05-05T09:19:24.054Z,1005.69
2019-05-05T09:20:23.972Z,1005.7
2019-05-05T09:21:20.639Z,1005.78
2019-05-05T09:22:19.501Z,1005.71
2019-05-05T09:23:18.058Z,1005.65
2019-05-05T09:24:16.972Z,1005.7
2019-05-05T09:25:15.555Z,1005.74
2019-05-05T09:26:14.191Z,1005.68
2019-05-05T09:27:14.128Z,1005.7
2019-05-05T09:28:11.612Z,1005.73
2019-05-05T09:29:10.181Z,1005.71
2019-05-05T09:30:09.006Z,1005.69
2019-05-05T09:31:07.597Z,1005.65
2019-05-05T09:32:06.185Z,1005.68
2019-05-05T09:33:04.770Z,1005.71
2019-05-05T09:34:04.129Z,1005.75
2019-05-05T09:35:04.488Z,1005.83
2019-05-05T09:36:01.131Z,1005.77
2019-05-05T09:36:59.737Z,1005.78
2019-05-05T09:37:58.330Z,1005.78
2019-05-05T09:38:56.975Z,1005.7
2019-05-05T09:39:55.797Z,1005.76
2019-05-05T09:40:54.509Z,1005.78
2019-05-05T09:41:53.656Z,1005.72
2019-05-05T09:42:53.531Z,1005.79
2019-05-05T09:43:50.353Z,1005.71
2019-05-05T09:44:48.917Z,1005.67
2019-05-05T09:45:47.651Z,1005.63
2019-05-05T09:46:46.241Z,1005.7
2019-05-05T09:47:45.062Z,1005.65
2019-05-05T09:48:44.068Z,1005.64
2019-05-05T09:49:44.270Z,1005.68
2019-05-05T09:50:40.884Z,1005.73
2019-05-05T09:51:39.467Z,1005.7
2019-05-05T09:52:38.060Z,1005.69
2019-05-05T09:53:36.798Z,1005.73
2019-05-05T09:54:35.527Z,1005.76
2019-05-05T09:55:34.095Z,1005.78
2019-05-05T09:56:33.884Z,1005.84
2019-05-05T09:57:31.521Z,1005.76
2019-05-05T09:58:30.117Z,1005.9
2019-05-05T09:59:28.779Z,1005.74
2019-05-05T10:00:27.586Z,1005.72
2019-05-05T10:01:26.357Z,1005.7
2019-05-05T10:02:25.036Z,1005.75
2019-05-05T10:05:20.666Z,1005.72
2019-05-05T10:06:19.242Z,1005.89
2019-05-05T10:07:17.887Z,1005.89
2019-05-05T10:08:16.539Z,1005.69
2019-05-05T10:09:15.229Z,1005.73
2019-05-05T10:10:14.144Z,1005.71
2019-05-05T10:11:12.845Z,1005.72
2019-05-05T10:12:11.606Z,1005.81
2019-05-05T10:13:10.217Z,1005.86
2019-05-05T10:14:08.741Z,1005.89
2019-05-05T10:15:07.762Z,1005.84
2019-05-05T10:16:06.222Z,1005.89
2019-05-05T10:17:05.085Z,1005.91
2019-05-05T10:19:45.305Z,1005.79
2019-05-05T10:20:43.942Z,1005.81
2019-05-05T10:21:44.353Z,1005.89
2019-05-05T10:22:41.271Z,1006.15
2019-05-05T10:23:39.955Z,1005.84
2019-05-05T10:24:38.548Z,1005.81
2019-05-05T10:25:37.524Z,1005.88
2019-05-05T10:26:36.107Z,1005.86
2019-05-05T10:27:44.164Z,1005.85
2019-05-05T10:38:16.607Z,1005.64
2019-05-05T10:39:15.280Z,1005.62
2019-05-05T10:40:13.818Z,1005.65
2019-05-05T10:41:13.508Z,1005.68
2019-05-05T10:42:11.225Z,1005.68
2019-05-05T10:43:09.990Z,1005.68
2019-05-05T10:45:09.374Z,1005.61
2019-05-05T10:46:07.921Z,1005.64
2019-05-05T10:47:06.493Z,1005.68
2019-05-05T10:48:05.220Z,1005.59
2019-05-05T10:49:04.019Z,1005.56
2019-05-05T10:50:04.842Z,1005.5
2019-05-05T10:51:01.181Z,1005.57
2019-05-05T10:51:59.752Z,1005.57
2019-05-05T10:52:58.309Z,1005.66
2019-05-05T10:53:56.959Z,1005.63
2019-05-05T10:54:55.501Z,1005.48
2019-05-05T10:55:54.070Z,1005.49
2019-05-05T10:56:52.580Z,1005.54
2019-05-05T10:57:51.359Z,1005.59
2019-05-05T10:58:50.149Z,1005.61
2019-05-05T10:59:48.709Z,1005.51
2019-05-05T11:00:47.422Z,1005.6
2019-05-05T11:01:45.951Z,1005.64
2019-05-05T11:02:44.465Z,1005.71
2019-05-05T11:03:44.607Z,1005.63
2019-05-05T11:04:41.726Z,1005.6
2019-05-05T11:05:40.448Z,1005.63
2019-05-05T11:06:39.494Z,1005.63
2019-05-05T11:07:38.065Z,1005.62
2019-05-05T11:08:36.626Z,1005.6
2019-05-05T11:09:35.503Z,1005.62
2019-05-05T11:10:34.121Z,1005.67
2019-05-05T11:11:34.369Z,1005.69
2019-05-05T11:12:33.264Z,1005.6
2019-05-05T11:13:30.140Z,1005.63
2019-05-05T11:14:28.670Z,1005.67
2019-05-05T11:15:27.223Z,1005.61
2019-05-05T11:16:25.843Z,1005.66
2019-05-05T11:17:24.852Z,1005.68
2019-05-05T11:18:23.750Z,1005.71
2019-05-05T11:19:23.640Z,1005.67
2019-05-05T11:20:21.745Z,1005.79
2019-05-05T11:21:20.283Z,1005.77
2019-05-05T11:22:19.335Z,1005.7
2019-05-05T11:23:17.922Z,1005.69
2019-05-05T11:24:16.568Z,1005.65
2019-05-05T11:25:15.250Z,1005.61
2019-05-05T11:26:14.385Z,1005.58
2019-05-05T11:27:12.561Z,1005.64
2019-05-05T11:28:11.596Z,1005.66
2019-05-05T11:29:10.239Z,1005.7
2019-05-05T11:30:08.819Z,1005.73
2019-05-05T11:31:07.383Z,1005.64
2019-05-05T11:33:47.818Z,1005.73
2019-05-05T11:34:46.425Z,1005.79
2019-05-05T11:35:45.376Z,1005.72
2019-05-05T11:36:44.082Z,1005.7
2019-05-05T11:37:43.783Z,1005.73
2019-05-05T11:38:42.424Z,1005.76
2019-05-05T11:39:40.464Z,1005.87
2019-05-05T11:40:39.406Z,1005.78
2019-05-05T11:41:38.229Z,1005.82
2019-05-05T11:42:36.843Z,1005.82
2019-05-05T11:43:35.476Z,1005.78
2019-05-05T11:44:34.104Z,1005.79
2019-05-05T11:45:34.416Z,1005.84
2019-05-05T11:46:31.486Z,1005.69
2019-05-05T11:47:30.245Z,1005.76
2019-05-05T11:48:28.902Z,1005.71
2019-05-05T11:52:08.136Z,1005.71
2019-05-05T11:53:06.874Z,1005.77
2019-05-05T11:54:06.196Z,1005.67
2019-05-05T11:55:11.334Z,1005.77
2019-05-05T11:56:04.248Z,1005.7
2019-05-05T11:57:03.781Z,1005.64
2019-05-05T11:58:01.122Z,1005.68
2019-05-05T11:58:59.928Z,1005.7
2019-05-05T11:59:58.599Z,1005.71
2019-05-05T12:00:57.358Z,1005.83
2019-05-05T12:01:56.121Z,1005.75
2019-05-05T12:02:54.711Z,1005.75
2019-05-05T12:03:53.720Z,1005.77
2019-05-05T12:04:53.999Z,1005.73
2019-05-05T12:05:50.837Z,1005.81
2019-05-05T12:06:49.685Z,1005.72
2019-05-05T12:07:48.544Z,1005.77
2019-05-05T12:08:47.221Z,1005.77
2019-05-05T12:09:45.983Z,1005.67
2019-05-05T12:10:44.606Z,1005.72
2019-05-05T12:13:25.059Z,1005.82
2019-05-05T12:14:26.468Z,1005.74
2019-05-05T12:15:23.839Z,1005.84
2019-05-05T12:16:20.978Z,1005.87
2019-05-05T12:17:19.780Z,1005.73
2019-05-05T12:18:18.318Z,1005.73
2019-05-05T12:19:17.101Z,1005.78
2019-05-05T12:20:15.809Z,1005.83
2019-05-05T12:21:14.393Z,1005.74
2019-05-05T12:22:13.367Z,1005.8
2019-05-05T12:23:12.127Z,1005.85
2019-05-05T12:42:35.906Z,1005.79
2019-05-05T12:43:34.563Z,1005.74
2019-05-05T12:44:34.071Z,1005.87
2019-05-05T12:45:32.012Z,1005.77
2019-05-05T12:46:30.626Z,1005.76
2019-05-05T12:47:29.315Z,1005.82
2019-05-05T12:48:27.898Z,1005.77